LHPP/PEV METAR and TAF weather

Enter ICAO airport designator
Station Type Date Time Source
LHPP METAR 2021/05/09 17:45 UTC NOAA

LHPP 091745Z 13007KT CAVOK 17/01 Q1019


Station Type Date Time Source
LHPP Decoded METAR 2021/05/09 17:45 UTC NOAA

Pecs / Pogany, Hungary (LHPP) 46-06N 018-14E 203M
May 09, 2021 - 01:45 PM EDT / 2021.05.09 1745 UTC
Wind: from the SE (130 degrees) at 8 MPH (7 KT):0
Visibility: greater than 7 mile(s):0
Temperature: 62 F (17 C)
Dew Point: 33 F (1 C)
Relative Humidity: 33%
Pressure (altimeter): 30.09 in. Hg (1019 hPa)
ob: LHPP 091745Z 13007KT CAVOK 17/01 Q1019
cycle: 18

Station Type Date Time Source
LHPP TAF 2017/08/21 15:50 UTC NOAA

TAF LHPP 211700Z 2115/2214 CNL

Example: see airport list